Rocky Butte, Washington
Current Conditions -  °F | °C
As of 3:53 AM on Thursday 29 Jan 2015 (Local Time) from KOMK Reporting Station
Overcast Overcast  
Wind Chill: 27°   Ceiling: 600
Heat Index: 32°   Visibility: 10mi
Dew Point: 29°   Wind: 5mph
Humidity: 88%   Direction: 300°WNW
Pressure: 30.5"   Gusts: NA
Location:  48.2133°N, 119.829°W
Report Text: KOMK 291153Z AUTO 30004KT 10SM OVC006 00/M02 A3050 RMK AO2 SLP342 T00001017 10011 20000 58000
Loading
Personal Weather Stations






























Interactive Weather Map New forecast layout! Learn more

10-Day Weather Forecast

Advertisements
Track Severe Weather on mobile